sensor_id;sensor_type;location;lat;lon;timestamp;pressure;altitude;pressure_sealevel;temperature;humidity
21779;BME280;11050;52.222;20.916;2022-11-06T00:01:51;100393.78;;;9.99;100.00
21779;BME280;11050;52.222;20.916;2022-11-06T00:04:17;100387.75;;;9.97;100.00
21779;BME280;11050;52.222;20.916;2022-11-06T00:06:43;100400.06;;;9.95;100.00
21779;BME280;11050;52.222;20.916;2022-11-06T00:09:18;100401.63;;;9.91;100.00
21779;BME280;11050;52.222;20.916;2022-11-06T00:11:46;100403.78;;;9.89;100.00
21779;BME280;11050;52.222;20.916;2022-11-06T00:14:12;100402.34;;;9.86;100.00
21779;BME280;11050;52.222;20.916;2022-11-06T00:16:40;100405.34;;;9.85;100.00
21779;BME280;11050;52.222;20.916;2022-11-06T00:19:06;100411.81;;;9.79;100.00
21779;BME280;11050;52.222;20.916;2022-11-06T00:21:33;100414.47;;;9.74;100.00
21779;BME280;11050;52.222;20.916;2022-11-06T00:24:02;100406.75;;;9.71;100.00
21779;BME280;11050;52.222;20.916;2022-11-06T00:26:30;100411.91;;;9.67;100.00
21779;BME280;11050;52.222;20.916;2022-11-06T00:28:56;100412.38;;;9.64;100.00
21779;BME280;11050;52.222;20.916;2022-11-06T00:31:27;100406.28;;;9.62;100.00
21779;BME280;11050;52.222;20.916;2022-11-06T00:33:55;100415.63;;;9.61;100.00
21779;BME280;11050;52.222;20.916;2022-11-06T00:36:23;100423.50;;;9.57;100.00
21779;BME280;11050;52.222;20.916;2022-11-06T00:38:54;100430.06;;;9.56;100.00
21779;BME280;11050;52.222;20.916;2022-11-06T00:41:21;100429.72;;;9.53;100.00
21779;BME280;11050;52.222;20.916;2022-11-06T00:43:51;100432.69;;;9.51;100.00
21779;BME280;11050;52.222;20.916;2022-11-06T00:46:17;100428.53;;;9.49;100.00
21779;BME280;11050;52.222;20.916;2022-11-06T00:48:44;100439.16;;;9.45;100.00
21779;BME280;11050;52.222;20.916;2022-11-06T00:51:12;100439.16;;;9.45;100.00
21779;BME280;11050;52.222;20.916;2022-11-06T00:53:39;100439.66;;;9.42;100.00
21779;BME280;11050;52.222;20.916;2022-11-06T00:56:12;100438.13;;;9.35;100.00
21779;BME280;11050;52.222;20.916;2022-11-06T00:58:39;100435.59;;;9.33;100.00
21779;BME280;11050;52.222;20.916;2022-11-06T01:01:20;100436.44;;;9.34;100.00
21779;BME280;11050;52.222;20.916;2022-11-06T01:03:51;100440.28;;;9.33;100.00
21779;BME280;11050;52.222;20.916;2022-11-06T01:06:21;100447.66;;;9.32;100.00
21779;BME280;11050;52.222;20.916;2022-11-06T01:08:48;100452.56;;;9.30;100.00
21779;BME280;11050;52.222;20.916;2022-11-06T01:11:19;100449.56;;;9.32;100.00
21779;BME280;11050;52.222;20.916;2022-11-06T01:13:49;100441.59;;;9.30;100.00
21779;BME280;11050;52.222;20.916;2022-11-06T01:16:16;100449.81;;;9.30;100.00
21779;BME280;11050;52.222;20.916;2022-11-06T01:18:43;100450.78;;;9.24;100.00
21779;BME280;11050;52.222;20.916;2022-11-06T01:21:24;100459.97;;;9.18;100.00
21779;BME280;11050;52.222;20.916;2022-11-06T01:23:57;100451.13;;;9.16;100.00
21779;BME280;11050;52.222;20.916;2022-11-06T01:26:25;100450.31;;;9.16;100.00
21779;BME280;11050;52.222;20.916;2022-11-06T01:28:51;100454.88;;;9.10;100.00
21779;BME280;11050;52.222;20.916;2022-11-06T01:31:22;100458.66;;;9.09;100.00
21779;BME280;11050;52.222;20.916;2022-11-06T01:33:49;100452.59;;;9.07;100.00
21779;BME280;11050;52.222;20.916;2022-11-06T01:36:17;100459.41;;;9.05;100.00
21779;BME280;11050;52.222;20.916;2022-11-06T01:38:49;100458.81;;;9.03;100.00
21779;BME280;11050;52.222;20.916;2022-11-06T01:41:26;100456.88;;;9.03;100.00
21779;BME280;11050;52.222;20.916;2022-11-06T01:43:56;100459.88;;;9.02;100.00
21779;BME280;11050;52.222;20.916;2022-11-06T01:46:25;100460.34;;;8.99;100.00
21779;BME280;11050;52.222;20.916;2022-11-06T01:49:11;100463.56;;;8.96;100.00
21779;BME280;11050;52.222;20.916;2022-11-06T01:51:55;100464.41;;;8.96;100.00
21779;BME280;11050;52.222;20.916;2022-11-06T01:54:25;100453.69;;;8.95;100.00
21779;BME280;11050;52.222;20.916;2022-11-06T01:56:56;100461.91;;;8.95;100.00
21779;BME280;11050;52.222;20.916;2022-11-06T01:59:33;100467.63;;;8.93;100.00
21779;BME280;11050;52.222;20.916;2022-11-06T02:02:00;100466.78;;;8.93;100.00
21779;BME280;11050;52.222;20.916;2022-11-06T02:04:32;100468.81;;;8.86;100.00
21779;BME280;11050;52.222;20.916;2022-11-06T02:07:01;100466.91;;;8.86;100.00
21779;BME280;11050;52.222;20.916;2022-11-06T02:09:30;100467.13;;;8.85;100.00
21779;BME280;11050;52.222;20.916;2022-11-06T02:27:01;100473.44;;;8.62;100.00
21779;BME280;11050;52.222;20.916;2022-11-06T02:32:45;100477.84;;;8.51;100.00
21779;BME280;11050;52.222;20.916;2022-11-06T02:35:33;100492.25;;;8.47;100.00
21779;BME280;11050;52.222;20.916;2022-11-06T02:38:17;100482.81;;;8.43;100.00
21779;BME280;11050;52.222;20.916;2022-11-06T02:40:51;100485.09;;;8.34;100.00
21779;BME280;11050;52.222;20.916;2022-11-06T02:43:21;100497.94;;;8.34;100.00
21779;BME280;11050;52.222;20.916;2022-11-06T02:46:00;100495.19;;;8.34;100.00
21779;BME280;11050;52.222;20.916;2022-11-06T02:48:39;100500.06;;;8.32;100.00
21779;BME280;11050;52.222;20.916;2022-11-06T02:51:09;100505.31;;;8.33;100.00
21779;BME280;11050;52.222;20.916;2022-11-06T02:53:41;100509.72;;;8.34;100.00
21779;BME280;11050;52.222;20.916;2022-11-06T02:56:17;100512.72;;;8.33;100.00
21779;BME280;11050;52.222;20.916;2022-11-06T02:59:17;100500.69;;;8.34;100.00
21779;BME280;11050;52.222;20.916;2022-11-06T03:01:53;100505.53;;;8.32;100.00
21779;BME280;11050;52.222;20.916;2022-11-06T03:09:58;100523.06;;;8.31;100.00
21779;BME280;11050;52.222;20.916;2022-11-06T03:12:55;100515.78;;;8.25;100.00
21779;BME280;11050;52.222;20.916;2022-11-06T03:16:11;100515.78;;;8.25;100.00
21779;BME280;11050;52.222;20.916;2022-11-06T03:18:58;100518.50;;;8.25;100.00
21779;BME280;11050;52.222;20.916;2022-11-06T03:21:54;100506.31;;;8.21;100.00
21779;BME280;11050;52.222;20.916;2022-11-06T03:24:45;100513.25;;;8.23;100.00
21779;BME280;11050;52.222;20.916;2022-11-06T03:27:19;100514.94;;;8.24;100.00
21779;BME280;11050;52.222;20.916;2022-11-06T03:29:53;100515.13;;;8.23;100.00
21779;BME280;11050;52.222;20.916;2022-11-06T03:32:58;100508.94;;;8.16;100.00
21779;BME280;11050;52.222;20.916;2022-11-06T03:35:38;100514.13;;;8.06;100.00
21779;BME280;11050;52.222;20.916;2022-11-06T03:38:38;100518.63;;;8.00;100.00
21779;BME280;11050;52.222;20.916;2022-11-06T03:41:13;100516.13;;;7.99;100.00
21779;BME280;11050;52.222;20.916;2022-11-06T03:43:44;100521.84;;;7.97;100.00
21779;BME280;11050;52.222;20.916;2022-11-06T03:46:19;100524.56;;;7.97;100.00
21779;BME280;11050;52.222;20.916;2022-11-06T03:48:52;100527.53;;;7.96;100.00
21779;BME280;11050;52.222;20.916;2022-11-06T03:51:39;100530.25;;;7.96;100.00
21779;BME280;11050;52.222;20.916;2022-11-06T03:54:16;100533.00;;;7.96;100.00
21779;BME280;11050;52.222;20.916;2022-11-06T03:56:48;100532.41;;;7.94;100.00
21779;BME280;11050;52.222;20.916;2022-11-06T03:59:17;100537.72;;;7.89;100.00
21779;BME280;11050;52.222;20.916;2022-11-06T04:01:49;100539.03;;;7.86;100.00
21779;BME280;11050;52.222;20.916;2022-11-06T04:04:24;100541.84;;;7.80;100.00
21779;BME280;11050;52.222;20.916;2022-11-06T04:06:56;100538.50;;;7.78;100.00
21779;BME280;11050;52.222;20.916;2022-11-06T04:09:27;100533.94;;;7.72;100.00
21779;BME280;11050;52.222;20.916;2022-11-06T04:12:19;100537.75;;;7.71;100.00
21779;BME280;11050;52.222;20.916;2022-11-06T04:15:15;100542.38;;;7.70;100.00
21779;BME280;11050;52.222;20.916;2022-11-06T04:17:41;100539.03;;;7.68;100.00
21779;BME280;11050;52.222;20.916;2022-11-06T04:20:14;100539.03;;;7.68;100.00
21779;BME280;11050;52.222;20.916;2022-11-06T04:30:12;100544.38;;;7.63;100.00
21779;BME280;11050;52.222;20.916;2022-11-06T04:33:24;100544.91;;;7.53;100.00
21779;BME280;11050;52.222;20.916;2022-11-06T04:39:16;100539.75;;;7.45;100.00
21779;BME280;11050;52.222;20.916;2022-11-06T04:41:55;100529.41;;;7.47;100.00
21779;BME280;11050;52.222;20.916;2022-11-06T04:44:56;100530.69;;;7.45;100.00
21779;BME280;11050;52.222;20.916;2022-11-06T04:47:24;100521.44;;;7.46;100.00
21779;BME280;11050;52.222;20.916;2022-11-06T04:49:52;100525.47;;;7.43;100.00
21779;BME280;11050;52.222;20.916;2022-11-06T04:52:26;100520.00;;;7.43;100.00
21779;BME280;11050;52.222;20.916;2022-11-06T04:54:54;100523.81;;;7.42;100.00
21779;BME280;11050;52.222;20.916;2022-11-06T04:57:24;100521.69;;;7.44;100.00
21779;BME280;11050;52.222;20.916;2022-11-06T04:59:50;100524.63;;;7.43;100.00
21779;BME280;11050;52.222;20.916;2022-11-06T05:02:15;100520.00;;;7.43;100.00
21779;BME280;11050;52.222;20.916;2022-11-06T05:04:41;100533.00;;;7.48;100.00
21779;BME280;11050;52.222;20.916;2022-11-06T05:07:10;100527.59;;;7.41;100.00
21779;BME280;11050;52.222;20.916;2022-11-06T05:09:37;100536.94;;;7.34;100.00
21779;BME280;11050;52.222;20.916;2022-11-06T05:12:02;100537.63;;;7.29;100.00
21779;BME280;11050;52.222;20.916;2022-11-06T05:14:28;100540.78;;;7.26;100.00
21779;BME280;11050;52.222;20.916;2022-11-06T05:16:54;100541.31;;;7.17;100.00
21779;BME280;11050;52.222;20.916;2022-11-06T05:19:20;100552.94;;;7.12;100.00
21779;BME280;11050;52.222;20.916;2022-11-06T05:21:45;100556.78;;;7.05;100.00
21779;BME280;11050;52.222;20.916;2022-11-06T05:24:30;100545.53;;;6.95;100.00
21779;BME280;11050;52.222;20.916;2022-11-06T05:26:55;100547.88;;;6.91;100.00
21779;BME280;11050;52.222;20.916;2022-11-06T05:29:21;100548.78;;;6.85;100.00
21779;BME280;11050;52.222;20.916;2022-11-06T05:31:47;100548.38;;;6.82;100.00
21779;BME280;11050;52.222;20.916;2022-11-06T05:34:13;100551.34;;;6.80;100.00
21779;BME280;11050;52.222;20.916;2022-11-06T05:36:39;100551.78;;;6.77;100.00
21779;BME280;11050;52.222;20.916;2022-11-06T05:39:04;100556.81;;;6.80;100.00
21779;BME280;11050;52.222;20.916;2022-11-06T05:41:30;100565.63;;;6.82;100.00
21779;BME280;11050;52.222;20.916;2022-11-06T05:43:56;100562.81;;;6.89;100.00
21779;BME280;11050;52.222;20.916;2022-11-06T05:46:22;100560.47;;;6.92;100.00
21779;BME280;11050;52.222;20.916;2022-11-06T05:48:48;100560.03;;;6.95;100.00
21779;BME280;11050;52.222;20.916;2022-11-06T05:51:14;100570.56;;;6.92;100.00
21779;BME280;11050;52.222;20.916;2022-11-06T05:53:39;100552.97;;;6.88;100.00
21779;BME280;11050;52.222;20.916;2022-11-06T05:56:06;100568.47;;;6.94;100.00
21779;BME280;11050;52.222;20.916;2022-11-06T05:58:32;100575.66;;;6.88;100.00
21779;BME280;11050;52.222;20.916;2022-11-06T06:00:58;100574.13;;;6.92;100.00
21779;BME280;11050;52.222;20.916;2022-11-06T06:03:25;100569.75;;;6.91;100.00
21779;BME280;11050;52.222;20.916;2022-11-06T06:05:51;100582.50;;;6.97;100.00
21779;BME280;11050;52.222;20.916;2022-11-06T06:08:17;100593.59;;;7.02;100.00
21779;BME280;11050;52.222;20.916;2022-11-06T06:10:45;100590.41;;;7.05;100.00
21779;BME280;11050;52.222;20.916;2022-11-06T06:13:12;100599.44;;;7.06;100.00
21779;BME280;11050;52.222;20.916;2022-11-06T06:15:40;100596.91;;;7.11;100.00
21779;BME280;11050;52.222;20.916;2022-11-06T06:18:07;100596.47;;;7.07;100.00
21779;BME280;11050;52.222;20.916;2022-11-06T06:20:34;100597.31;;;7.08;100.00
21779;BME280;11050;52.222;20.916;2022-11-06T06:23:00;100608.72;;;7.05;100.00
21779;BME280;11050;52.222;20.916;2022-11-06T06:25:28;100604.97;;;6.99;100.00
21779;BME280;11050;52.222;20.916;2022-11-06T06:27:55;100611.69;;;7.03;100.00
21779;BME280;11050;52.222;20.916;2022-11-06T06:30:22;100613.34;;;7.04;100.00
21779;BME280;11050;52.222;20.916;2022-11-06T06:32:49;100613.19;;;6.99;100.00
21779;BME280;11050;52.222;20.916;2022-11-06T06:35:15;100608.75;;;6.98;100.00
21779;BME280;11050;52.222;20.916;2022-11-06T06:37:53;100609.38;;;7.00;100.00
21779;BME280;11050;52.222;20.916;2022-11-06T06:40:20;100615.41;;;7.09;100.00
21779;BME280;11050;52.222;20.916;2022-11-06T06:42:46;100622.50;;;7.16;100.00
21779;BME280;11050;52.222;20.916;2022-11-06T06:45:12;100618.28;;;7.14;100.00
21779;BME280;11050;52.222;20.916;2022-11-06T06:47:37;100620.63;;;7.10;100.00
21779;BME280;11050;52.222;20.916;2022-11-06T06:50:04;100625.22;;;7.16;100.00
21779;BME280;11050;52.222;20.916;2022-11-06T06:52:30;100633.34;;;7.23;100.00
21779;BME280;11050;52.222;20.916;2022-11-06T06:54:55;100625.91;;;7.30;100.00
21779;BME280;11050;52.222;20.916;2022-11-06T06:57:21;100630.72;;;7.34;100.00
21779;BME280;11050;52.222;20.916;2022-11-06T06:59:47;100632.59;;;7.34;100.00
21779;BME280;11050;52.222;20.916;2022-11-06T07:02:12;100634.69;;;7.38;100.00
21779;BME280;11050;52.222;20.916;2022-11-06T07:04:38;100634.81;;;7.43;100.00
21779;BME280;11050;52.222;20.916;2022-11-06T07:07:04;100627.84;;;7.47;100.00
21779;BME280;11050;52.222;20.916;2022-11-06T07:09:31;100631.19;;;7.49;100.00
21779;BME280;11050;52.222;20.916;2022-11-06T07:11:57;100633.47;;;7.52;100.00
21779;BME280;11050;52.222;20.916;2022-11-06T07:14:23;100634.63;;;7.63;100.00
21779;BME280;11050;52.222;20.916;2022-11-06T07:16:49;100635.63;;;7.68;100.00
21779;BME280;11050;52.222;20.916;2022-11-06T07:19:15;100644.22;;;7.72;100.00
21779;BME280;11050;52.222;20.916;2022-11-06T07:21:41;100638.28;;;7.75;100.00
21779;BME280;11050;52.222;20.916;2022-11-06T07:24:07;100646.56;;;7.87;100.00
21779;BME280;11050;52.222;20.916;2022-11-06T07:26:32;100642.25;;;7.97;100.00
21779;BME280;11050;52.222;20.916;2022-11-06T07:28:58;100654.56;;;8.06;100.00
21779;BME280;11050;52.222;20.916;2022-11-06T07:31:24;100652.88;;;8.23;100.00
21779;BME280;11050;52.222;20.916;2022-11-06T07:33:50;100651.13;;;8.29;100.00
21779;BME280;11050;52.222;20.916;2022-11-06T07:36:16;100644.75;;;8.35;100.00
21779;BME280;11050;52.222;20.916;2022-11-06T07:38:42;100649.69;;;8.44;100.00
21779;BME280;11050;52.222;20.916;2022-11-06T07:41:13;100648.47;;;8.40;100.00
21779;BME280;11050;52.222;20.916;2022-11-06T07:43:40;100651.81;;;8.42;100.00
21779;BME280;11050;52.222;20.916;2022-11-06T07:46:09;100659.78;;;8.44;100.00
21779;BME280;11050;52.222;20.916;2022-11-06T07:48:35;100652.31;;;8.51;100.00
21779;BME280;11050;52.222;20.916;2022-11-06T07:51:07;100659.78;;;8.44;100.00
21779;BME280;11050;52.222;20.916;2022-11-06T07:53:34;100663.25;;;8.51;100.00
21779;BME280;11050;52.222;20.916;2022-11-06T07:55:59;100654.13;;;8.57;100.00
21779;BME280;11050;52.222;20.916;2022-11-06T07:58:25;100654.63;;;8.66;100.00
21779;BME280;11050;52.222;20.916;2022-11-06T08:00:54;100663.50;;;8.79;100.00
21779;BME280;11050;52.222;20.916;2022-11-06T08:03:22;100661.47;;;8.86;100.00
21779;BME280;11050;52.222;20.916;2022-11-06T08:05:48;100656.34;;;8.78;100.00
21779;BME280;11050;52.222;20.916;2022-11-06T08:08:15;100659.66;;;8.69;100.00
21779;BME280;11050;52.222;20.916;2022-11-06T08:10:42;100661.06;;;8.71;100.00
21779;BME280;11050;52.222;20.916;2022-11-06T08:13:16;100664.28;;;8.68;100.00
21779;BME280;11050;52.222;20.916;2022-11-06T08:15:43;100653.69;;;8.72;100.00
21779;BME280;11050;52.222;20.916;2022-11-06T08:18:10;100659.88;;;8.67;100.00
21779;BME280;11050;52.222;20.916;2022-11-06T08:20:38;100659.03;;;8.67;100.00
21779;BME280;11050;52.222;20.916;2022-11-06T08:23:07;100662.75;;;8.72;100.00
21779;BME280;11050;52.222;20.916;2022-11-06T08:25:33;100664.41;;;8.73;100.00
21779;BME280;11050;52.222;20.916;2022-11-06T08:28:01;100670.88;;;8.79;100.00
21779;BME280;11050;52.222;20.916;2022-11-06T08:30:29;100673.72;;;8.72;100.00
21779;BME280;11050;52.222;20.916;2022-11-06T08:33:06;100670.13;;;8.72;100.00
21779;BME280;11050;52.222;20.916;2022-11-06T08:35:36;100677.31;;;8.73;100.00
21779;BME280;11050;52.222;20.916;2022-11-06T08:38:03;100665.38;;;8.79;100.00
21779;BME280;11050;52.222;20.916;2022-11-06T08:40:29;100670.19;;;8.83;100.00
21779;BME280;11050;52.222;20.916;2022-11-06T08:43:15;100669.16;;;9.07;100.00
21779;BME280;11050;52.222;20.916;2022-11-06T08:45:42;100661.69;;;9.26;100.00
21779;BME280;11050;52.222;20.916;2022-11-06T08:48:09;100671.03;;;9.48;100.00
21779;BME280;11050;52.222;20.916;2022-11-06T08:50:38;100660.66;;;9.50;100.00
21779;BME280;11050;52.222;20.916;2022-11-06T08:53:05;100668.28;;;9.60;100.00
21779;BME280;11050;52.222;20.916;2022-11-06T08:55:33;100668.25;;;9.71;100.00
21779;BME280;11050;52.222;20.916;2022-11-06T08:58:00;100667.06;;;9.79;100.00
21779;BME280;11050;52.222;20.916;2022-11-06T09:00:26;100660.16;;;9.88;100.00
21779;BME280;11050;52.222;20.916;2022-11-06T09:03:03;100668.75;;;9.91;100.00
21779;BME280;11050;52.222;20.916;2022-11-06T09:05:29;100663.59;;;9.95;100.00
21779;BME280;11050;52.222;20.916;2022-11-06T09:07:57;100660.72;;;10.01;100.00
21779;BME280;11050;52.222;20.916;2022-11-06T09:10:24;100662.06;;;10.10;100.00
21779;BME280;11050;52.222;20.916;2022-11-06T09:12:51;100654.94;;;10.26;100.00
21779;BME280;11050;52.222;20.916;2022-11-06T09:15:17;100656.13;;;10.30;100.00
21779;BME280;11050;52.222;20.916;2022-11-06T09:17:50;100652.34;;;10.31;100.00
21779;BME280;11050;52.222;20.916;2022-11-06T09:20:19;100666.13;;;10.47;100.00
21779;BME280;11050;52.222;20.916;2022-11-06T09:22:46;100668.06;;;10.64;100.00
21779;BME280;11050;52.222;20.916;2022-11-06T09:25:13;100675.34;;;10.70;100.00
21779;BME280;11050;52.222;20.916;2022-11-06T09:27:46;100674.03;;;10.72;100.00
21779;BME280;11050;52.222;20.916;2022-11-06T09:30:16;100671.28;;;10.72;100.00
21779;BME280;11050;52.222;20.916;2022-11-06T09:32:54;100675.94;;;10.72;100.00
21779;BME280;11050;52.222;20.916;2022-11-06T09:35:23;100678.63;;;10.83;100.00
21779;BME280;11050;52.222;20.916;2022-11-06T09:37:49;100687.31;;;10.92;100.00
21779;BME280;11050;52.222;20.916;2022-11-06T09:43:26;100682.59;;;11.04;100.00
21779;BME280;11050;52.222;20.916;2022-11-06T09:46:06;100681.03;;;11.08;100.00
21779;BME280;11050;52.222;20.916;2022-11-06T09:48:40;100680.34;;;11.01;100.00
21779;BME280;11050;52.222;20.916;2022-11-06T09:54:19;100688.16;;;10.92;100.00
21779;BME280;11050;52.222;20.916;2022-11-06T09:56:54;100695.38;;;10.82;100.00
21779;BME280;11050;52.222;20.916;2022-11-06T09:59:21;100687.22;;;10.87;100.00
21779;BME280;11050;52.222;20.916;2022-11-06T10:01:54;100687.56;;;10.90;100.00
21779;BME280;11050;52.222;20.916;2022-11-06T10:04:43;100690.31;;;10.90;100.00
21779;BME280;11050;52.222;20.916;2022-11-06T10:07:32;100690.91;;;10.92;100.00
21779;BME280;11050;52.222;20.916;2022-11-06T10:10:00;100705.63;;;10.86;100.00
21779;BME280;11050;52.222;20.916;2022-11-06T10:15:21;100686.00;;;10.94;100.00
21779;BME280;11050;52.222;20.916;2022-11-06T10:20:41;100690.53;;;11.17;100.00
21779;BME280;11050;52.222;20.916;2022-11-06T10:23:20;100692.69;;;11.31;100.00
21779;BME280;11050;52.222;20.916;2022-11-06T10:34:26;100683.22;;;11.56;100.00
21779;BME280;11050;52.222;20.916;2022-11-06T10:37:03;100682.38;;;11.55;100.00
21779;BME280;11050;52.222;20.916;2022-11-06T10:39:35;100679.31;;;11.52;100.00
21779;BME280;11050;52.222;20.916;2022-11-06T10:42:10;100678.13;;;11.64;100.00
21779;BME280;11050;52.222;20.916;2022-11-06T10:47:25;100676.31;;;12.08;100.00
21779;BME280;11050;52.222;20.916;2022-11-06T10:49:55;100677.59;;;12.22;100.00
21779;BME280;11050;52.222;20.916;2022-11-06T10:52:51;100683.38;;;12.42;98.26
21779;BME280;11050;52.222;20.916;2022-11-06T10:58:29;100666.84;;;12.20;98.90
21779;BME280;11050;52.222;20.916;2022-11-06T11:01:01;100665.06;;;12.31;99.41
21779;BME280;11050;52.222;20.916;2022-11-06T11:03:35;100658.00;;;12.40;97.82
21779;BME280;11050;52.222;20.916;2022-11-06T11:06:04;100660.44;;;12.36;96.63
21779;BME280;11050;52.222;20.916;2022-11-06T11:11:05;100661.06;;;12.22;96.52
21779;BME280;11050;52.222;20.916;2022-11-06T11:13:32;100659.69;;;12.19;97.48
21779;BME280;11050;52.222;20.916;2022-11-06T11:15:58;100648.06;;;12.17;97.91
21779;BME280;11050;52.222;20.916;2022-11-06T11:18:26;100649.03;;;12.28;98.98
21779;BME280;11050;52.222;20.916;2022-11-06T11:23:39;100639.41;;;12.30;97.91
21779;BME280;11050;52.222;20.916;2022-11-06T11:26:21;100636.53;;;12.42;97.74
21779;BME280;11050;52.222;20.916;2022-11-06T11:28:56;100646.00;;;12.51;97.94
21779;BME280;11050;52.222;20.916;2022-11-06T11:31:33;100626.72;;;12.78;97.44
21779;BME280;11050;52.222;20.916;2022-11-06T11:34:06;100631.09;;;13.00;95.38
21779;BME280;11050;52.222;20.916;2022-11-06T11:37:01;100630.41;;;13.93;94.82
21779;BME280;11050;52.222;20.916;2022-11-06T11:39:43;100626.69;;;15.32;88.13
21779;BME280;11050;52.222;20.916;2022-11-06T11:42:28;100628.66;;;16.50;79.92
21779;BME280;11050;52.222;20.916;2022-11-06T11:47:44;100636.09;;;17.42;65.43
21779;BME280;11050;52.222;20.916;2022-11-06T11:50:31;100633.84;;;17.16;64.83
21779;BME280;11050;52.222;20.916;2022-11-06T11:53:12;100635.13;;;17.62;64.88
21779;BME280;11050;52.222;20.916;2022-11-06T11:55:47;100631.81;;;18.12;63.12
21779;BME280;11050;52.222;20.916;2022-11-06T11:58:26;100634.59;;;18.59;60.79
21779;BME280;11050;52.222;20.916;2022-11-06T12:01:04;100634.31;;;19.17;58.13
21779;BME280;11050;52.222;20.916;2022-11-06T12:03:43;100631.31;;;19.64;55.84
21779;BME280;11050;52.222;20.916;2022-11-06T12:06:15;100633.47;;;20.13;52.61
21779;BME280;11050;52.222;20.916;2022-11-06T12:08:51;100631.13;;;20.60;50.66
21779;BME280;11050;52.222;20.916;2022-11-06T12:11:28;100638.88;;;20.99;48.41
21779;BME280;11050;52.222;20.916;2022-11-06T12:14:31;100626.97;;;21.43;46.67
21779;BME280;11050;52.222;20.916;2022-11-06T12:17:09;100625.50;;;21.67;46.48
21779;BME280;11050;52.222;20.916;2022-11-06T12:19:42;100629.25;;;21.85;46.10
21779;BME280;11050;52.222;20.916;2022-11-06T12:22:21;100619.28;;;22.01;43.43
21779;BME280;11050;52.222;20.916;2022-11-06T12:24:59;100630.38;;;22.15;43.04
21779;BME280;11050;52.222;20.916;2022-11-06T12:27:37;100627.13;;;22.61;40.92
21779;BME280;11050;52.222;20.916;2022-11-06T12:30:14;100618.13;;;23.15;40.50
21779;BME280;11050;52.222;20.916;2022-11-06T12:33:09;100610.03;;;23.47;38.98
21779;BME280;11050;52.222;20.916;2022-11-06T12:35:46;100602.25;;;23.62;38.62
21779;BME280;11050;52.222;20.916;2022-11-06T12:41:10;100615.06;;;23.88;38.25
21779;BME280;11050;52.222;20.916;2022-11-06T12:43:43;100606.63;;;24.05;37.81
21779;BME280;11050;52.222;20.916;2022-11-06T12:51:59;100597.56;;;24.37;35.62
21779;BME280;11050;52.222;20.916;2022-11-06T13:01:19;100605.97;;;25.16;32.85
21779;BME280;11050;52.222;20.916;2022-11-06T13:12:45;100596.78;;;24.87;33.25
21779;BME280;11050;52.222;20.916;2022-11-06T13:18:29;100596.66;;;24.45;34.22
21779;BME280;11050;52.222;20.916;2022-11-06T13:28:04;100591.28;;;24.61;32.22
21779;BME280;11050;52.222;20.916;2022-11-06T13:30:29;100581.34;;;24.64;32.36
21779;BME280;11050;52.222;20.916;2022-11-06T13:33:21;100579.38;;;24.64;32.87
21779;BME280;11050;52.222;20.916;2022-11-06T13:35:49;100576.72;;;24.68;33.54
21779;BME280;11050;52.222;20.916;2022-11-06T13:38:29;100582.72;;;24.58;33.55
21779;BME280;11050;52.222;20.916;2022-11-06T13:41:05;100587.13;;;24.67;34.45
21779;BME280;11050;52.222;20.916;2022-11-06T13:43:43;100583.06;;;24.56;34.12
21779;BME280;11050;52.222;20.916;2022-11-06T13:46:23;100574.75;;;24.30;34.52
21779;BME280;11050;52.222;20.916;2022-11-06T13:52:02;100577.69;;;24.13;34.46
21779;BME280;11050;52.222;20.916;2022-11-06T14:06:02;100559.19;;;23.58;35.76
21779;BME280;11050;52.222;20.916;2022-11-06T14:08:43;100568.47;;;23.41;35.36
21779;BME280;11050;52.222;20.916;2022-11-06T14:11:20;100557.06;;;23.20;36.68
21779;BME280;11050;52.222;20.916;2022-11-06T14:14:00;100549.34;;;22.92;37.09
21779;BME280;11050;52.222;20.916;2022-11-06T14:16:33;100552.28;;;22.61;37.22
21779;BME280;11050;52.222;20.916;2022-11-06T14:24:15;100560.03;;;21.77;38.51
21779;BME280;11050;52.222;20.916;2022-11-06T14:26:48;100564.22;;;21.35;39.38
21779;BME280;11050;52.222;20.916;2022-11-06T14:37:45;100544.34;;;19.30;43.81
21779;BME280;11050;52.222;20.916;2022-11-06T14:40:13;100547.00;;;18.70;45.59
21779;BME280;11050;52.222;20.916;2022-11-06T14:42:45;100552.50;;;18.15;47.82
21779;BME280;11050;52.222;20.916;2022-11-06T14:45:16;100554.88;;;17.55;49.52
21779;BME280;11050;52.222;20.916;2022-11-06T14:50:25;100553.50;;;16.42;53.59
21779;BME280;11050;52.222;20.916;2022-11-06T14:53:00;100545.25;;;15.63;55.79
21779;BME280;11050;52.222;20.916;2022-11-06T14:56:01;100545.28;;;14.97;59.90
21779;BME280;11050;52.222;20.916;2022-11-06T14:58:35;100545.81;;;14.44;62.82
21779;BME280;11050;52.222;20.916;2022-11-06T15:03:53;100552.56;;;13.50;68.43
21779;BME280;11050;52.222;20.916;2022-11-06T15:19:01;100530.78;;;11.62;82.94
21779;BME280;11050;52.222;20.916;2022-11-06T15:21:42;100524.97;;;11.36;84.97
21779;BME280;11050;52.222;20.916;2022-11-06T15:24:19;100534.56;;;11.17;87.63
21779;BME280;11050;52.222;20.916;2022-11-06T15:27:02;100534.50;;;10.96;89.15
21779;BME280;11050;52.222;20.916;2022-11-06T15:29:33;100537.19;;;10.74;91.69
21779;BME280;11050;52.222;20.916;2022-11-06T15:32:27;100544.97;;;10.49;94.45
21779;BME280;11050;52.222;20.916;2022-11-06T15:35:17;100541.34;;;10.32;96.31